Nearby METAR Reports

 

KCPC - Whiteville, North Carolina, USA
Distance from station: NNE 17mi, 28km
Updated: 12/12/2018 6:40pm
Clear
Clear
 Wind from calm
Wind: Calm
Temperature: 43°F , 6°C
Dew Point: 39°F , 4°C
Humidity: 87%
Barometer: 30.23 inHg , 1023.7 hPa
Clouds: Clear
Visibility: 10 miles , 16 km
2018/12/12 23:40 KCPC 122340Z AUTO 00000KT 10SM CLR 06/04 A3023 RMK AO2 T00640036
KCRE - North Myrtle Bea, South Carolina, USA
Distance from station: SSE 19mi, 31km
Updated: 12/12/2018 5:53pm
Clear
Clear
 Wind from calm
Wind: Calm
Temperature: 45°F , 7°C
Dew Point: 39°F , 4°C
Humidity: 81%
Barometer: 30.21 inHg , 1023 hPa
Clouds: Clear
Visibility: 10 miles , 16 km
2018/12/12 22:53 KCRE 122253Z 00000KT 10SM CLR 07/04 A3021 RMK AO1 SLP229 T00670039
 
KHYW - Conway-Horry Cty, South Carolina, USA
Distance from station: SW 22mi, 35km
Updated: 12/12/2018 6:35pm
Clear
Clear
 Wind from calm
Wind: Calm
Temperature: 39°F , 4°C
Dew Point: 39°F , 4°C
Humidity: 100%
Barometer: 30.23 inHg , 1023.7 hPa
Clouds: Clear
Visibility: 7 miles , 11 km
2018/12/12 23:35 KHYW 122335Z AUTO 00000KT 7SM CLR 04/04 A3023 RMK AO2
KMAO - Marion, South Carolina, USA
Distance from station: WNW 28mi, 45km
Updated: 12/12/2018 6:55pm
Clear
Clear
 Wind from calm
Wind: Calm
Temperature: 41°F , 5°C
Dew Point: 37°F , 3°C
Humidity: 87%
Barometer: 30.23 inHg , 1023.7 hPa
Clouds: Clear
Visibility: 10 miles , 16 km
2018/12/12 23:55 KMAO 122355Z AUTO 00000KT 10SM CLR 05/03 A3023 RMK AO2
 
KMYR - Myrtle Beach, South Carolina, USA
Distance from station: S 28mi, 45km
Updated: 12/12/2018 5:56pm
Clear
Clear
 Wind from calm
Wind: Calm
Temperature: 45°F , 7°C
Dew Point: 41°F , 5°C
Humidity: 87%
Barometer: 30.23 inHg , 1023.7 hPa
Clouds: Clear
Visibility: 10 miles , 16 km
2018/12/12 22:56 KMYR 122256Z 00000KT 10SM CLR 07/05 A3023 RMK AO2 SLP235 T00720050
KLBT - Lumberton, North Carolina, USA
Distance from station: NNW 39mi, 62km
Updated: 12/12/2018 5:54pm
Clear
Clear
 Wind from calm
Wind: Calm
Temperature: 45°F , 7°C
Dew Point: 37°F , 3°C
Humidity: 76%
Barometer: 30.19 inHg , 1022.4 hPa
Clouds: Clear
Visibility: 10 miles , 16 km
2018/12/12 22:54 KLBT 122254Z AUTO 00000KT 10SM CLR 07/03 A3019 RMK AO2 SLP224 T00720033
 
KSUT - Southport, North Carolina, USA
Distance from station: E 46mi, 74km
Updated: 12/12/2018 6:40pm
Clear
Clear
 Wind from calm
Wind: Calm
Temperature: 43°F , 6°C
Dew Point: 39°F , 4°C
Humidity: 87%
Barometer: 30.22 inHg , 1023.4 hPa
Clouds: Clear
Visibility: 10 miles , 16 km
2018/12/12 23:40 KSUT 122340Z AUTO 00000KT 10SM CLR 06/04 A3022 RMK AO2 T00600037
KFLO - Florence, South Carolina, USA
Distance from station: W 50mi, 81km
Updated: 12/12/2018 5:53pm
Clear
Clear
 Wind from SSW
Wind: SSW 3 mph , 6 km/h
Temperature: 46°F , 8°C
Dew Point: 37°F , 3°C
Humidity: 71%
Barometer: 30.20 inHg , 1022.7 hPa
Clouds: Clear
Visibility: 10 miles , 16 km
2018/12/12 22:53 KFLO 122253Z 21003KT 10SM CLR 08/03 A3020 RMK AO2 SLP227 T00780028